Grizzly Air Cargo 5113


PANC
Ted Stevens Anchorage International Airport
Anchorage, Alaska, US
PAFA
Fairbanks International Airport
Fairbanks, Alaska, US

Activity Log

Date Flight Route Aircraft Duration
10/12/2019 GRZ503 CAWIN LIBER3 B722 0h 48m
10/08/2019 GRZ503 CAWIN LIBER3 B722 0h 45m
09/29/2019 GRZ503 CAWIN LIBER3 B722 0h 54m
09/17/2019 GRZ503 CAWIN LIBER3 B722 0h 56m
07/08/2019 GRZ503 CAWIN LIBER3 B722 1h 04m
07/03/2019 GRZ503 TED J115 TUCKS J115 BINAL J115 DUT SIYNY ADK B722 3h 12m
06/21/2019 GRZ503 CAWIN LIBER3 B722 1h 06m

Route Details

Aircraft Information
Primary: Boeing 727-200F
Backup: Boeing 737-800BCF
Route Data
Distance: 227nm
Sched. Duration: 1h 00m
Avg. Duration: 1h 03m (+4m)
Times Flown: 7
Recm'd Route: CAWIN LIBER3
Planned Altitude: 30,000ft
Origin Wx: PANC 210753Z 16004KT 10SM FEW065 SCT100 BKN250 M04/M04 A2888 RMK AO2 SLP782 T10391044 $
Dest. Wx: PAFA 210753Z 12003KT 10SM SCT100 BKN180 M11/M14 A2886 RMK AO2 SLP781 T11111139
Notes:

Financial History
Total Freight: 268,111lbs
Average Load: 38,302lbs/flt
Fuel Used: 80,087lbs
Avg. Fuel Used: 11,441lbs/flt
Fuel Expense: $99,308
Avg. Fuel Expense: $14,187
Avg. Fuel Cost: $1.24/lbs
Total Gross Income: $380,718
Pilot Pay: $1,443
Total Expenses: $41,482
Total Revenue: $237,982
Average Revenue: $54,388.23